createdAt,value
2018-08-10T00:00:10.404Z,16.77
2018-08-10T00:02:41.152Z,16.87
2018-08-10T00:05:12.542Z,17.77
2018-08-10T00:07:43.500Z,16.90
2018-08-10T00:10:15.629Z,17.00
2018-08-10T00:12:46.229Z,18.17
2018-08-10T00:15:16.842Z,18.93
2018-08-10T00:17:47.507Z,19.40
2018-08-10T00:20:18.123Z,18.60
2018-08-10T00:22:48.668Z,18.23
2018-08-10T00:25:19.838Z,18.80
2018-08-10T00:27:50.337Z,18.50
2018-08-10T00:30:21.216Z,17.80
2018-08-10T00:32:52.551Z,18.97
2018-08-10T00:35:23.640Z,17.80
2018-08-10T00:37:54.327Z,18.30
2018-08-10T00:40:25.313Z,17.50
2018-08-10T00:42:55.976Z,17.60
2018-08-10T00:45:26.519Z,17.93
2018-08-10T00:47:57.312Z,17.73
2018-08-10T00:50:28.511Z,18.00
2018-08-10T00:52:58.970Z,17.97
2018-08-10T00:55:30.540Z,17.60
2018-08-10T00:58:01.052Z,18.47
2018-08-10T01:00:32.712Z,17.47
2018-08-10T01:03:03.942Z,18.80
2018-08-10T01:05:34.442Z,19.77
2018-08-10T01:08:05.188Z,19.27
2018-08-10T01:10:36.403Z,19.17
2018-08-10T01:13:07.774Z,19.47
2018-08-10T01:15:38.474Z,18.97
2018-08-10T01:18:09.040Z,18.77
2018-08-10T01:20:40.225Z,19.07
2018-08-10T01:23:11.790Z,19.50
2018-08-10T01:25:42.980Z,19.03
2018-08-10T01:28:14.022Z,20.77
2018-08-10T01:30:44.797Z,22.10
2018-08-10T01:33:15.312Z,20.70
2018-08-10T01:35:46.910Z,20.80
2018-08-10T01:38:17.823Z,19.90
2018-08-10T01:40:48.325Z,18.47
2018-08-10T01:43:18.826Z,18.67
2018-08-10T01:45:49.463Z,18.57
2018-08-10T01:48:20.069Z,20.10
2018-08-10T01:50:51.495Z,19.03
2018-08-10T01:53:21.965Z,19.77
2018-08-10T01:55:52.884Z,18.30
2018-08-10T01:58:23.602Z,19.93
2018-08-10T02:00:54.097Z,19.33
2018-08-10T02:03:24.642Z,19.30
2018-08-10T02:05:56.143Z,18.07
2018-08-10T02:08:27.017Z,18.87
2018-08-10T02:10:57.938Z,18.97
2018-08-10T02:13:28.532Z,19.40
2018-08-10T02:15:59.053Z,18.83
2018-08-10T02:18:29.902Z,19.13
2018-08-10T02:21:01.401Z,18.37
2018-08-10T02:23:31.862Z,17.97
2018-08-10T02:26:02.481Z,17.83
2018-08-10T02:28:33.029Z,18.97
2018-08-10T02:31:03.511Z,17.90
2018-08-10T02:33:33.989Z,17.70
2018-08-10T02:36:04.492Z,17.30
2018-08-10T02:38:35.623Z,18.53
2018-08-10T02:41:06.199Z,19.07
2018-08-10T02:43:36.782Z,19.70
2018-08-10T02:46:07.845Z,19.53
2018-08-10T02:48:38.480Z,19.53
2018-08-10T02:51:08.966Z,19.70
2018-08-10T02:53:39.297Z,19.40
2018-08-10T02:56:09.667Z,20.83
2018-08-10T02:58:41.432Z,20.97
2018-08-10T03:01:12.075Z,21.20
2018-08-10T03:03:43.252Z,20.40
2018-08-10T03:06:13.935Z,21.10
2018-08-10T03:08:44.614Z,21.37
2018-08-10T03:11:15.253Z,20.97
2018-08-10T03:13:46.037Z,22.50
2018-08-10T03:16:16.674Z,21.80
2018-08-10T03:18:47.288Z,21.93
2018-08-10T03:21:17.965Z,20.77
2018-08-10T03:23:48.410Z,18.30
2018-08-10T03:26:19.012Z,18.97
2018-08-10T03:28:49.596Z,20.60
2018-08-10T03:31:20.203Z,19.57
2018-08-10T03:33:50.944Z,19.97
2018-08-10T03:36:21.322Z,20.27
2018-08-10T03:38:51.905Z,21.27
2018-08-10T03:41:22.663Z,21.60
2018-08-10T03:43:53.422Z,20.10
2018-08-10T03:46:24.034Z,20.60
2018-08-10T03:48:55.296Z,21.47
2018-08-10T03:51:25.882Z,19.83
2018-08-10T03:53:56.419Z,20.53
2018-08-10T03:56:27.346Z,20.93
2018-08-10T03:58:58.047Z,20.63
2018-08-10T04:01:29.129Z,20.93
2018-08-10T04:03:59.604Z,22.27
2018-08-10T04:06:30.868Z,20.93
2018-08-10T04:09:01.763Z,22.10
2018-08-10T04:11:32.467Z,21.73
2018-08-10T04:14:03.138Z,21.93
2018-08-10T04:16:33.690Z,23.23
2018-08-10T04:19:04.112Z,22.30
2018-08-10T04:21:35.384Z,22.33
2018-08-10T04:24:06.594Z,23.50
2018-08-10T04:26:37.190Z,22.50
2018-08-10T04:29:07.835Z,20.10
2018-08-10T04:31:38.542Z,19.03
2018-08-10T04:34:09.030Z,18.80
2018-08-10T04:36:39.791Z,21.23
2018-08-10T04:39:13.902Z,21.53
2018-08-10T04:41:45.568Z,22.53
2018-08-10T04:44:16.097Z,22.03
2018-08-10T04:46:46.455Z,21.77
2018-08-10T04:49:16.888Z,21.53
2018-08-10T04:51:48.200Z,22.30
2018-08-10T04:54:19.683Z,25.20
2018-08-10T04:56:50.214Z,23.33
2018-08-10T04:59:21.371Z,21.83
2018-08-10T05:01:51.962Z,21.97
2018-08-10T05:04:22.593Z,20.63
2018-08-10T05:06:53.061Z,19.47
2018-08-10T05:09:24.514Z,19.70
2018-08-10T05:11:55.144Z,19.37
2018-08-10T05:14:25.870Z,20.10
2018-08-10T05:16:56.458Z,20.20
2018-08-10T05:19:27.069Z,19.30
2018-08-10T05:21:58.898Z,20.50
2018-08-10T05:24:29.529Z,18.30
2018-08-10T05:27:00.087Z,18.93
2018-08-10T05:29:30.571Z,19.80
2018-08-10T05:32:01.202Z,19.33
2018-08-10T05:34:32.065Z,18.80
2018-08-10T05:37:02.652Z,20.00
2018-08-10T05:39:34.989Z,19.57
2018-08-10T05:42:05.803Z,20.50
2018-08-10T05:44:36.510Z,19.03
2018-08-10T05:47:07.148Z,19.60
2018-08-10T05:49:38.218Z,19.10
2018-08-10T05:52:09.793Z,17.50
2018-08-10T05:54:40.645Z,16.70
2018-08-10T05:57:11.314Z,16.83
2018-08-10T05:59:43.483Z,17.17
2018-08-10T06:02:15.872Z,16.40
2018-08-10T06:04:46.729Z,16.43
2018-08-10T06:07:17.455Z,16.90
2018-08-10T06:09:48.743Z,17.53
2018-08-10T06:12:19.618Z,16.50
2018-08-10T06:14:50.485Z,17.13
2018-08-10T06:17:21.716Z,16.07
2018-08-10T06:19:53.321Z,15.87
2018-08-10T06:22:24.390Z,16.07
2018-08-10T06:24:55.466Z,19.10
2018-08-10T06:27:26.272Z,19.50
2018-08-10T06:29:57.057Z,19.83
2018-08-10T06:32:28.124Z,18.00
2018-08-10T06:34:59.232Z,18.13
2018-08-10T06:37:31.652Z,17.37
2018-08-10T06:40:02.831Z,16.90
2018-08-10T06:42:33.466Z,17.30
2018-08-10T06:45:04.368Z,16.20
2018-08-10T06:47:35.887Z,16.37
2018-08-10T06:50:09.430Z,14.87
2018-08-10T06:52:40.083Z,16.47
2018-08-10T06:55:12.556Z,15.30
2018-08-10T06:57:44.378Z,16.03
2018-08-10T07:00:16.264Z,15.47
2018-08-10T07:02:47.157Z,15.27
2018-08-10T07:05:20.348Z,15.87
2018-08-10T07:07:53.595Z,15.30
2018-08-10T07:10:28.241Z,14.90
2018-08-10T07:12:59.432Z,14.30
2018-08-10T07:15:38.506Z,14.77
2018-08-10T07:18:45.364Z,15.93
2018-08-10T07:21:17.323Z,14.63
2018-08-10T07:23:50.602Z,15.67
2018-08-10T07:29:25.164Z,13.33
2018-08-10T07:31:57.024Z,13.07
2018-08-10T07:34:30.120Z,13.13
2018-08-10T07:37:02.063Z,13.70
2018-08-10T07:39:33.154Z,12.50
2018-08-10T07:42:08.084Z,12.30
2018-08-10T07:44:38.998Z,13.03
2018-08-10T07:47:10.715Z,12.70
2018-08-10T07:49:42.915Z,13.13
2018-08-10T07:52:14.346Z,12.73
2018-08-10T07:54:45.144Z,11.80
2018-08-10T07:57:16.037Z,12.30
2018-08-10T07:59:46.930Z,12.20
2018-08-10T08:02:17.858Z,11.27
2018-08-10T08:04:49.385Z,11.83
2018-08-10T08:07:22.356Z,11.40
2018-08-10T08:09:53.253Z,10.80
2018-08-10T08:12:24.016Z,10.83
2018-08-10T08:14:55.108Z,10.23
2018-08-10T08:17:26.493Z,9.20
2018-08-10T08:19:58.190Z,8.83
2018-08-10T08:22:30.268Z,8.57
2018-08-10T08:25:02.687Z,9.70
2018-08-10T08:27:33.566Z,9.27
2018-08-10T08:30:04.567Z,9.50
2018-08-10T08:32:35.661Z,8.83
2018-08-10T08:35:06.967Z,8.83
2018-08-10T08:37:37.781Z,8.87
2018-08-10T08:40:21.095Z,9.30
2018-08-10T08:42:52.458Z,8.50
2018-08-10T08:46:26.752Z,8.13
2018-08-10T08:48:57.361Z,8.43
2018-08-10T08:51:28.120Z,8.50
2018-08-10T08:54:15.733Z,9.13
2018-08-10T08:56:47.780Z,8.13
2018-08-10T08:59:18.410Z,8.23
2018-08-10T09:01:49.724Z,8.98
2018-08-10T09:05:23.229Z,8.15
2018-08-10T09:07:54.127Z,7.90
2018-08-10T09:10:24.913Z,7.95
2018-08-10T09:12:56.285Z,7.55
2018-08-10T09:15:27.170Z,7.50
2018-08-10T09:17:58.498Z,8.28
2018-08-10T09:20:31.544Z,7.97
2018-08-10T09:23:02.410Z,7.53
2018-08-10T09:25:33.608Z,7.47
2018-08-10T09:28:04.589Z,7.37
2018-08-10T09:30:35.765Z,7.30
2018-08-10T09:33:06.517Z,7.22
2018-08-10T09:35:38.169Z,7.05
2018-08-10T09:38:09.519Z,7.42
2018-08-10T09:40:42.768Z,7.60
2018-08-10T09:43:13.929Z,7.85
2018-08-10T09:45:44.869Z,7.72
2018-08-10T09:48:15.677Z,7.60
2018-08-10T09:50:46.432Z,7.85
2018-08-10T09:53:17.952Z,7.75
2018-08-10T09:55:49.742Z,7.60
2018-08-10T09:58:24.430Z,7.70
2018-08-10T10:00:55.393Z,7.90
2018-08-10T10:03:27.367Z,7.78
2018-08-10T10:06:00.017Z,7.85
2018-08-10T10:08:30.998Z,7.55
2018-08-10T10:11:02.785Z,7.60
2018-08-10T10:13:34.694Z,7.37
2018-08-10T10:16:05.648Z,7.28
2018-08-10T10:18:36.494Z,7.65
2018-08-10T10:21:07.483Z,7.83
2018-08-10T10:23:38.293Z,7.92
2018-08-10T10:26:09.175Z,8.05
2018-08-10T10:28:40.139Z,7.65
2018-08-10T10:31:11.764Z,8.20
2018-08-10T10:33:44.310Z,7.95
2018-08-10T10:36:15.512Z,7.95
2018-08-10T10:38:47.519Z,8.25
2018-08-10T10:41:19.976Z,8.70
2018-08-10T10:43:51.059Z,8.20
2018-08-10T10:46:21.854Z,8.30
2018-08-10T10:48:53.786Z,8.50
2018-08-10T10:51:34.637Z,8.13
2018-08-10T10:54:06.214Z,8.13
2018-08-10T10:56:37.362Z,7.92
2018-08-10T10:59:08.437Z,8.40
2018-08-10T11:01:39.762Z,8.43
2018-08-10T11:04:10.920Z,8.08
2018-08-10T11:06:42.112Z,8.50
2018-08-10T11:09:13.228Z,8.00
2018-08-10T11:11:46.741Z,7.97
2018-08-10T11:14:17.570Z,8.65
2018-08-10T11:16:49.005Z,8.40
2018-08-10T11:19:20.596Z,8.10
2018-08-10T11:21:52.331Z,7.90
2018-08-10T11:24:23.883Z,7.72
2018-08-10T11:26:55.227Z,7.60
2018-08-10T11:29:31.436Z,7.80
2018-08-10T11:32:03.761Z,8.10
2018-08-10T11:34:36.064Z,8.00
2018-08-10T11:37:07.460Z,7.42
2018-08-10T11:39:39.602Z,6.90
2018-08-10T11:42:12.750Z,6.80
2018-08-10T11:44:44.717Z,6.72
2018-08-10T11:47:17.415Z,7.17
2018-08-10T11:49:50.253Z,7.10
2018-08-10T11:52:20.902Z,6.85
2018-08-10T11:54:51.609Z,7.42
2018-08-10T11:57:22.777Z,6.72
2018-08-10T11:59:53.836Z,7.12
2018-08-10T12:02:25.633Z,6.50
2018-08-10T12:04:57.709Z,7.17
2018-08-10T12:07:30.116Z,7.00
2018-08-10T12:10:01.310Z,7.08
2018-08-10T12:12:32.162Z,7.10
2018-08-10T12:15:04.634Z,7.15
2018-08-10T12:17:35.900Z,7.20
2018-08-10T12:20:06.995Z,7.40
2018-08-10T12:22:37.948Z,7.08
2018-08-10T12:25:10.996Z,7.45
2018-08-10T12:27:42.537Z,6.97
2018-08-10T12:30:14.795Z,7.35
2018-08-10T12:32:46.151Z,7.12
2018-08-10T12:35:17.911Z,7.83
2018-08-10T12:37:48.811Z,7.75
2018-08-10T12:40:20.518Z,7.90
2018-08-10T12:42:51.353Z,8.03
2018-08-10T12:45:25.089Z,7.87
2018-08-10T12:47:55.920Z,9.03
2018-08-10T12:50:27.152Z,8.07
2018-08-10T12:52:57.825Z,7.63
2018-08-10T12:55:29.139Z,7.47
2018-08-10T12:58:00.480Z,8.80
2018-08-10T13:00:31.488Z,9.17
2018-08-10T13:03:02.375Z,8.60
2018-08-10T13:05:33.845Z,9.37
2018-08-10T13:08:05.461Z,9.00
2018-08-10T13:10:36.312Z,8.70
2018-08-10T13:13:08.624Z,9.10
2018-08-10T13:15:39.431Z,8.77
2018-08-10T13:18:11.338Z,8.77
2018-08-10T13:20:46.099Z,8.80
2018-08-10T13:23:19.523Z,9.00
2018-08-10T13:25:51.153Z,8.90
2018-08-10T13:28:22.281Z,9.50
2018-08-10T13:30:53.350Z,10.47
2018-08-10T13:33:25.067Z,9.30
2018-08-10T13:35:57.071Z,8.97
2018-08-10T13:38:31.341Z,8.77
2018-08-10T13:41:02.475Z,9.20
2018-08-10T13:43:34.314Z,8.80
2018-08-10T13:46:07.279Z,8.80
2018-08-10T13:48:39.349Z,8.30
2018-08-10T13:51:12.903Z,9.30
2018-08-10T13:53:44.889Z,7.97
2018-08-10T13:56:16.277Z,8.30
2018-08-10T13:58:48.427Z,8.10
2018-08-10T14:01:19.680Z,8.73
2018-08-10T14:03:52.061Z,8.57
2018-08-10T14:06:25.611Z,8.28
2018-08-10T14:08:57.408Z,8.33
2018-08-10T14:11:29.771Z,8.05
2018-08-10T14:14:01.375Z,8.05
2018-08-10T14:16:32.864Z,7.97
2018-08-10T14:19:03.619Z,9.03
2018-08-10T14:21:35.580Z,8.63
2018-08-10T14:24:08.679Z,8.30
2018-08-10T14:26:39.519Z,8.25
2018-08-10T14:29:11.074Z,7.33
2018-08-10T14:31:41.927Z,8.40
2018-08-10T14:34:13.209Z,8.40
2018-08-10T14:36:45.215Z,8.53
2018-08-10T14:39:19.025Z,8.70
2018-08-10T14:41:50.036Z,8.53
2018-08-10T14:44:21.394Z,9.03
2018-08-10T14:46:53.698Z,7.87
2018-08-10T14:49:25.173Z,8.50
2018-08-10T14:52:01.629Z,8.98
2018-08-10T14:54:36.214Z,8.53
2018-08-10T14:57:08.791Z,9.10
2018-08-10T14:59:42.328Z,9.30
2018-08-10T15:02:13.611Z,7.95
2018-08-10T15:04:46.764Z,8.33
2018-08-10T15:07:19.011Z,7.42
2018-08-10T15:09:51.018Z,8.18
2018-08-10T15:12:22.294Z,8.20
2018-08-10T15:14:53.432Z,8.33
2018-08-10T15:17:24.992Z,7.50
2018-08-10T15:19:57.993Z,8.57
2018-08-10T15:22:29.175Z,8.30
2018-08-10T15:25:00.480Z,8.83
2018-08-10T15:27:31.385Z,8.30
2018-08-10T15:30:03.758Z,7.77
2018-08-10T15:32:34.455Z,7.67
2018-08-10T15:35:06.368Z,7.70
2018-08-10T15:37:37.611Z,7.30
2018-08-10T15:40:11.280Z,7.67
2018-08-10T15:42:43.346Z,6.97
2018-08-10T15:45:15.441Z,6.57
2018-08-10T15:47:47.003Z,6.87
2018-08-10T15:50:19.116Z,7.37
2018-08-10T15:52:50.157Z,8.27
2018-08-10T15:55:21.229Z,6.87
2018-08-10T15:57:52.323Z,7.60
2018-08-10T16:00:25.904Z,7.37
2018-08-10T16:02:57.441Z,7.50
2018-08-10T16:05:29.419Z,7.67
2018-08-10T16:08:02.098Z,7.27
2018-08-10T16:10:34.249Z,7.83
2018-08-10T16:13:05.637Z,7.13
2018-08-10T16:15:38.513Z,7.53
2018-08-10T16:18:10.513Z,8.10
2018-08-10T16:20:42.067Z,7.83
2018-08-10T16:23:13.318Z,7.93
2018-08-10T16:25:45.054Z,7.07
2018-08-10T16:28:17.784Z,7.23
2018-08-10T16:30:48.864Z,6.90
2018-08-10T16:33:21.285Z,6.67
2018-08-10T16:35:51.859Z,6.90
2018-08-10T16:38:22.935Z,6.57
2018-08-10T16:40:54.338Z,6.37
2018-08-10T16:43:26.183Z,6.13
2018-08-10T16:45:57.028Z,5.67
2018-08-10T16:48:27.720Z,5.43
2018-08-10T16:50:58.331Z,5.53
2018-08-10T16:53:28.978Z,5.70
2018-08-10T16:56:01.157Z,5.13
2018-08-10T16:58:33.205Z,6.67
2018-08-10T17:01:04.604Z,5.53
2018-08-10T17:03:35.228Z,5.50
2018-08-10T17:06:06.284Z,5.00
2018-08-10T17:08:36.998Z,5.50
2018-08-10T17:11:07.827Z,5.50
2018-08-10T17:13:39.399Z,5.30
2018-08-10T17:16:16.558Z,4.90
2018-08-10T17:18:48.415Z,4.70
2018-08-10T17:21:19.971Z,5.00
2018-08-10T17:23:51.663Z,5.40
2018-08-10T17:26:22.656Z,4.50
2018-08-10T17:28:54.100Z,4.27
2018-08-10T17:31:25.933Z,4.97
2018-08-10T17:33:57.377Z,4.00
2018-08-10T17:36:29.700Z,4.43
2018-08-10T17:39:00.397Z,4.57
2018-08-10T17:41:31.455Z,3.93
2018-08-10T17:44:02.970Z,4.03
2018-08-10T17:46:34.775Z,4.70
2018-08-10T17:49:06.211Z,4.10
2018-08-10T17:51:36.907Z,4.40
2018-08-10T17:54:08.443Z,4.67
2018-08-10T17:56:39.849Z,4.23
2018-08-10T17:59:10.983Z,4.23
2018-08-10T18:01:41.929Z,4.47
2018-08-10T18:04:13.132Z,4.37
2018-08-10T18:06:44.269Z,4.10
2018-08-10T18:09:15.607Z,4.60
2018-08-10T18:11:47.194Z,5.00
2018-08-10T18:14:19.562Z,4.90
2018-08-10T18:16:50.942Z,4.67
2018-08-10T18:19:22.704Z,4.43
2018-08-10T18:21:53.668Z,4.93
2018-08-10T18:24:25.698Z,5.10
2018-08-10T18:26:57.230Z,5.23
2018-08-10T18:29:28.184Z,5.23
2018-08-10T18:32:00.580Z,6.70
2018-08-10T18:34:31.462Z,7.30
2018-08-10T18:37:02.329Z,5.90
2018-08-10T18:39:34.014Z,5.63
2018-08-10T18:42:06.220Z,5.17
2018-08-10T18:44:38.029Z,5.30
2018-08-10T18:47:10.453Z,5.70
2018-08-10T18:49:42.381Z,6.00
2018-08-10T18:52:14.186Z,5.77
2018-08-10T18:54:45.672Z,5.63
2018-08-10T18:57:17.790Z,5.57
2018-08-10T18:59:49.536Z,5.53
2018-08-10T19:02:22.307Z,5.23
2018-08-10T19:04:54.877Z,5.37
2018-08-10T19:07:26.326Z,5.83
2018-08-10T19:10:00.353Z,6.57
2018-08-10T19:12:34.487Z,5.33
2018-08-10T19:15:07.231Z,5.30
2018-08-10T19:17:40.179Z,5.43
2018-08-10T19:20:13.387Z,5.47
2018-08-10T19:22:45.568Z,5.03
2018-08-10T19:25:17.826Z,5.23
2018-08-10T19:27:50.196Z,5.10
2018-08-10T19:30:24.710Z,5.23
2018-08-10T19:32:56.658Z,5.57
2018-08-10T19:35:28.841Z,5.83
2018-08-10T19:38:00.480Z,5.60
2018-08-10T19:40:32.320Z,5.50
2018-08-10T19:43:03.768Z,6.03
2018-08-10T19:45:35.758Z,5.40
2018-08-10T19:48:08.373Z,5.50
2018-08-10T19:50:41.665Z,5.63
2018-08-10T19:53:13.945Z,7.87
2018-08-10T19:55:46.318Z,5.87
2018-08-10T19:58:17.974Z,5.20
2018-08-10T20:00:49.654Z,5.00
2018-08-10T20:03:21.774Z,5.50
2018-08-10T20:05:53.527Z,4.90
2018-08-10T20:08:25.707Z,4.70
2018-08-10T20:10:57.666Z,5.10
2018-08-10T20:13:29.538Z,5.27
2018-08-10T20:16:01.623Z,5.07
2018-08-10T20:18:34.719Z,5.40
2018-08-10T20:21:10.942Z,5.27
2018-08-10T20:23:43.321Z,5.20
2018-08-10T20:26:15.668Z,5.53
2018-08-10T20:28:47.550Z,5.23
2018-08-10T20:31:20.013Z,5.20
2018-08-10T20:33:51.974Z,5.27
2018-08-10T20:36:26.404Z,5.50
2018-08-10T20:38:57.663Z,5.40
2018-08-10T20:41:29.369Z,5.33
2018-08-10T20:44:02.732Z,4.93
2018-08-10T20:46:34.488Z,5.63
2018-08-10T20:49:06.527Z,5.67
2018-08-10T20:51:39.345Z,5.63
2018-08-10T20:54:11.046Z,5.43
2018-08-10T20:56:42.831Z,5.30
2018-08-10T20:59:14.463Z,5.63
2018-08-10T21:01:46.297Z,5.10
2018-08-10T21:04:17.397Z,5.47
2018-08-10T21:06:48.512Z,5.90
2018-08-10T21:09:19.252Z,5.77
2018-08-10T21:11:50.206Z,5.17
2018-08-10T21:14:21.032Z,5.80
2018-08-10T21:16:51.745Z,6.40
2018-08-10T21:19:22.658Z,7.03
2018-08-10T21:21:53.430Z,7.10
2018-08-10T21:24:23.999Z,6.90
2018-08-10T21:26:56.652Z,7.00
2018-08-10T21:29:27.283Z,6.77
2018-08-10T21:31:57.847Z,6.90
2018-08-10T21:34:29.033Z,6.20
2018-08-10T21:37:00.295Z,6.07
2018-08-10T21:39:31.244Z,6.20
2018-08-10T21:42:01.818Z,5.63
2018-08-10T21:44:32.465Z,5.73
2018-08-10T21:47:03.193Z,5.80
2018-08-10T21:49:33.746Z,5.97
2018-08-10T21:52:05.408Z,5.60
2018-08-10T21:54:36.175Z,5.30
2018-08-10T21:57:06.886Z,5.27
2018-08-10T21:59:37.656Z,5.60
2018-08-10T22:02:11.550Z,5.10
2018-08-10T22:04:42.441Z,5.13
2018-08-10T22:07:13.489Z,5.80
2018-08-10T22:09:44.085Z,6.20
2018-08-10T22:12:18.953Z,6.73
2018-08-10T22:14:55.121Z,7.37
2018-08-10T22:17:31.219Z,6.90
2018-08-10T22:20:02.014Z,7.73
2018-08-10T22:22:32.643Z,6.63
2018-08-10T22:25:03.173Z,6.33
2018-08-10T22:27:34.279Z,5.83
2018-08-10T22:30:06.063Z,5.77
2018-08-10T22:32:36.768Z,8.03
2018-08-10T22:35:07.893Z,7.60
2018-08-10T22:37:38.744Z,5.67
2018-08-10T22:40:09.937Z,5.80
2018-08-10T22:42:40.627Z,6.73
2018-08-10T22:45:11.283Z,9.17
2018-08-10T22:47:41.844Z,8.93
2018-08-10T22:50:12.645Z,9.93
2018-08-10T22:52:43.393Z,11.40
2018-08-10T22:55:14.032Z,10.27
2018-08-10T22:57:45.316Z,9.30
2018-08-10T23:00:15.790Z,8.53
2018-08-10T23:02:46.883Z,9.80
2018-08-10T23:05:17.464Z,9.40
2018-08-10T23:07:48.467Z,10.47
2018-08-10T23:10:19.196Z,9.00
2018-08-10T23:12:49.931Z,11.67
2018-08-10T23:15:20.588Z,10.53
2018-08-10T23:17:51.312Z,9.63
2018-08-10T23:20:21.968Z,9.83
2018-08-10T23:22:53.691Z,8.40
2018-08-10T23:25:24.422Z,8.03
2018-08-10T23:27:55.002Z,8.27
2018-08-10T23:30:25.614Z,6.90
2018-08-10T23:32:56.124Z,6.77
2018-08-10T23:35:26.988Z,7.37
2018-08-10T23:37:57.738Z,9.00
2018-08-10T23:40:28.691Z,7.70
2018-08-10T23:42:59.142Z,6.90
2018-08-10T23:45:29.901Z,7.43
2018-08-10T23:48:00.590Z,6.63
2018-08-10T23:50:31.243Z,7.57
2018-08-10T23:53:02.346Z,6.77
2018-08-10T23:55:33.429Z,6.87
2018-08-10T23:58:04.777Z,7.43
